sensor_id;sensor_type;location;lat;lon;timestamp;P1;durP1;ratioP1;P2;durP2;ratioP2
71955;SDS011;59829;50.562;6.258;2022-10-17T00:09:25;1.00;;;0.88;;
71955;SDS011;59829;50.562;6.258;2022-10-17T00:19:25;1.85;;;1.00;;
71955;SDS011;59829;50.562;6.258;2022-10-17T00:29:26;1.83;;;1.20;;
71955;SDS011;59829;50.562;6.258;2022-10-17T00:39:26;1.60;;;1.17;;
71955;SDS011;59829;50.562;6.258;2022-10-17T00:49:27;1.95;;;1.20;;
71955;SDS011;59829;50.562;6.258;2022-10-17T00:59:31;1.38;;;1.08;;
71955;SDS011;59829;50.562;6.258;2022-10-17T01:09:35;1.88;;;1.10;;
71955;SDS011;59829;50.562;6.258;2022-10-17T01:50:15;1.55;;;0.90;;
71955;SDS011;59829;50.562;6.258;2022-10-17T02:00:22;1.40;;;0.80;;
71955;SDS011;59829;50.562;6.258;2022-10-17T02:20:51;1.48;;;0.75;;
71955;SDS011;59829;50.562;6.258;2022-10-17T02:30:59;1.27;;;0.80;;
71955;SDS011;59829;50.562;6.258;2022-10-17T02:41:04;0.90;;;0.80;;
71955;SDS011;59829;50.562;6.258;2022-10-17T02:51:19;1.33;;;0.88;;
71955;SDS011;59829;50.562;6.258;2022-10-17T03:01:32;1.37;;;0.80;;
71955;SDS011;59829;50.562;6.258;2022-10-17T03:21:35;0.70;;;0.60;;
71955;SDS011;59829;50.562;6.258;2022-10-17T03:31:36;0.90;;;0.60;;
71955;SDS011;59829;50.562;6.258;2022-10-17T03:41:37;1.25;;;0.70;;
71955;SDS011;59829;50.562;6.258;2022-10-17T03:51:37;0.88;;;0.60;;
71955;SDS011;59829;50.562;6.258;2022-10-17T04:01:37;1.23;;;0.93;;
71955;SDS011;59829;50.562;6.258;2022-10-17T04:11:38;1.75;;;1.08;;
71955;SDS011;59829;50.562;6.258;2022-10-17T04:21:38;1.60;;;1.10;;
71955;SDS011;59829;50.562;6.258;2022-10-17T04:31:39;1.20;;;0.90;;
71955;SDS011;59829;50.562;6.258;2022-10-17T04:41:39;2.17;;;1.05;;
71955;SDS011;59829;50.562;6.258;2022-10-17T04:51:40;1.30;;;1.00;;
71955;SDS011;59829;50.562;6.258;2022-10-17T05:01:40;1.15;;;0.88;;
71955;SDS011;59829;50.562;6.258;2022-10-17T05:11:41;2.22;;;1.40;;
71955;SDS011;59829;50.562;6.258;2022-10-17T05:21:42;1.52;;;1.27;;
71955;SDS011;59829;50.562;6.258;2022-10-17T05:31:42;2.22;;;1.55;;
71955;SDS011;59829;50.562;6.258;2022-10-17T05:41:43;2.53;;;1.60;;
71955;SDS011;59829;50.562;6.258;2022-10-17T05:51:43;1.73;;;1.30;;
71955;SDS011;59829;50.562;6.258;2022-10-17T06:01:43;2.05;;;1.40;;
71955;SDS011;59829;50.562;6.258;2022-10-17T06:11:44;1.40;;;1.20;;
71955;SDS011;59829;50.562;6.258;2022-10-17T06:21:44;2.40;;;1.60;;
71955;SDS011;59829;50.562;6.258;2022-10-17T06:31:44;2.50;;;1.60;;
71955;SDS011;59829;50.562;6.258;2022-10-17T06:41:45;2.15;;;1.60;;
71955;SDS011;59829;50.562;6.258;2022-10-17T06:51:45;3.25;;;1.63;;
71955;SDS011;59829;50.562;6.258;2022-10-17T07:01:45;2.50;;;1.80;;
71955;SDS011;59829;50.562;6.258;2022-10-17T07:11:45;3.15;;;2.00;;
71955;SDS011;59829;50.562;6.258;2022-10-17T07:21:46;3.90;;;2.00;;
71955;SDS011;59829;50.562;6.258;2022-10-17T07:31:47;2.30;;;1.75;;
71955;SDS011;59829;50.562;6.258;2022-10-17T07:41:48;4.00;;;2.10;;
71955;SDS011;59829;50.562;6.258;2022-10-17T07:51:49;4.78;;;2.40;;
71955;SDS011;59829;50.562;6.258;2022-10-17T08:01:50;3.13;;;2.00;;
71955;SDS011;59829;50.562;6.258;2022-10-17T08:11:50;3.22;;;2.00;;
71955;SDS011;59829;50.562;6.258;2022-10-17T08:21:50;3.42;;;1.90;;
71955;SDS011;59829;50.562;6.258;2022-10-17T08:31:51;3.50;;;2.20;;
71955;SDS011;59829;50.562;6.258;2022-10-17T08:52:10;3.23;;;2.00;;
71955;SDS011;59829;50.562;6.258;2022-10-17T09:02:36;2.70;;;2.08;;
71955;SDS011;59829;50.562;6.258;2022-10-17T09:22:57;2.40;;;1.63;;
71955;SDS011;59829;50.562;6.258;2022-10-17T09:33:08;1.90;;;1.27;;
71955;SDS011;59829;50.562;6.258;2022-10-17T09:53:16;2.42;;;1.40;;
71955;SDS011;59829;50.562;6.258;2022-10-17T10:03:22;2.70;;;1.52;;
71955;SDS011;59829;50.562;6.258;2022-10-17T10:13:24;1.33;;;1.23;;
71955;SDS011;59829;50.562;6.258;2022-10-17T10:23:25;2.27;;;1.07;;
71955;SDS011;59829;50.562;6.258;2022-10-17T10:33:26;2.72;;;1.02;;
71955;SDS011;59829;50.562;6.258;2022-10-17T10:53:54;1.50;;;1.13;;
71955;SDS011;59829;50.562;6.258;2022-10-17T11:14:42;1.67;;;1.20;;
71955;SDS011;59829;50.562;6.258;2022-10-17T11:24:53;2.42;;;1.30;;
71955;SDS011;59829;50.562;6.258;2022-10-17T11:35:00;5.70;;;1.30;;
71955;SDS011;59829;50.562;6.258;2022-10-17T11:45:07;2.97;;;1.63;;
71955;SDS011;59829;50.562;6.258;2022-10-17T11:55:14;3.17;;;1.40;;
71955;SDS011;59829;50.562;6.258;2022-10-17T12:05:47;2.38;;;1.20;;
71955;SDS011;59829;50.562;6.258;2022-10-17T12:15:54;3.53;;;1.30;;
71955;SDS011;59829;50.562;6.258;2022-10-17T12:25:55;1.20;;;0.80;;
71955;SDS011;59829;50.562;6.258;2022-10-17T12:56:53;1.90;;;1.10;;
71955;SDS011;59829;50.562;6.258;2022-10-17T13:06:54;1.73;;;0.98;;
71955;SDS011;59829;50.562;6.258;2022-10-17T13:16:57;1.90;;;1.00;;
71955;SDS011;59829;50.562;6.258;2022-10-17T13:27:03;1.05;;;0.63;;
71955;SDS011;59829;50.562;6.258;2022-10-17T13:37:05;1.17;;;0.60;;
71955;SDS011;59829;50.562;6.258;2022-10-17T13:47:25;1.08;;;0.80;;
71955;SDS011;59829;50.562;6.258;2022-10-17T13:57:30;1.00;;;0.60;;
71955;SDS011;59829;50.562;6.258;2022-10-17T14:17:40;2.55;;;0.95;;
71955;SDS011;59829;50.562;6.258;2022-10-17T14:27:53;2.58;;;1.40;;
71955;SDS011;59829;50.562;6.258;2022-10-17T14:38:02;1.13;;;0.63;;
71955;SDS011;59829;50.562;6.258;2022-10-17T14:48:11;1.40;;;0.90;;
71955;SDS011;59829;50.562;6.258;2022-10-17T14:58:17;1.35;;;0.73;;
71955;SDS011;59829;50.562;6.258;2022-10-17T15:08:23;0.80;;;0.50;;
71955;SDS011;59829;50.562;6.258;2022-10-17T15:18:23;1.30;;;0.80;;
71955;SDS011;59829;50.562;6.258;2022-10-17T15:28:23;1.88;;;0.80;;
71955;SDS011;59829;50.562;6.258;2022-10-17T15:38:24;1.38;;;0.93;;
71955;SDS011;59829;50.562;6.258;2022-10-17T15:48:25;1.35;;;0.70;;
71955;SDS011;59829;50.562;6.258;2022-10-17T15:58:31;0.73;;;0.60;;
71955;SDS011;59829;50.562;6.258;2022-10-17T16:08:35;0.63;;;0.50;;
71955;SDS011;59829;50.562;6.258;2022-10-17T16:18:35;0.60;;;0.50;;
71955;SDS011;59829;50.562;6.258;2022-10-17T16:28:35;0.63;;;0.32;;
71955;SDS011;59829;50.562;6.258;2022-10-17T16:38:36;0.25;;;0.17;;
71955;SDS011;59829;50.562;6.258;2022-10-17T16:48:36;0.60;;;0.20;;
71955;SDS011;59829;50.562;6.258;2022-10-17T16:58:36;0.63;;;0.47;;
71955;SDS011;59829;50.562;6.258;2022-10-17T17:08:37;0.40;;;0.20;;
71955;SDS011;59829;50.562;6.258;2022-10-17T17:18:38;0.77;;;0.40;;
71955;SDS011;59829;50.562;6.258;2022-10-17T17:28:39;0.30;;;0.30;;
71955;SDS011;59829;50.562;6.258;2022-10-17T17:38:40;0.98;;;0.40;;
71955;SDS011;59829;50.562;6.258;2022-10-17T17:48:41;1.65;;;0.70;;
71955;SDS011;59829;50.562;6.258;2022-10-17T17:58:43;0.60;;;0.40;;
71955;SDS011;59829;50.562;6.258;2022-10-17T18:08:47;0.50;;;0.50;;
71955;SDS011;59829;50.562;6.258;2022-10-17T18:18:50;0.55;;;0.45;;
71955;SDS011;59829;50.562;6.258;2022-10-17T18:28:50;0.22;;;0.22;;
71955;SDS011;59829;50.562;6.258;2022-10-17T18:38:51;0.47;;;0.28;;
71955;SDS011;59829;50.562;6.258;2022-10-17T18:48:52;0.55;;;0.10;;
71955;SDS011;59829;50.562;6.258;2022-10-17T18:58:53;0.10;;;0.08;;
71955;SDS011;59829;50.562;6.258;2022-10-17T19:08:54;0.10;;;0.10;;
71955;SDS011;59829;50.562;6.258;2022-10-17T19:18:55;0.10;;;0.10;;
71955;SDS011;59829;50.562;6.258;2022-10-17T19:28:58;0.10;;;0.05;;
71955;SDS011;59829;50.562;6.258;2022-10-17T19:39:00;0.20;;;0.10;;
71955;SDS011;59829;50.562;6.258;2022-10-17T19:49:02;0.08;;;0.00;;
71955;SDS011;59829;50.562;6.258;2022-10-17T19:59:04;0.13;;;0.00;;
71955;SDS011;59829;50.562;6.258;2022-10-17T20:09:05;0.10;;;0.10;;
71955;SDS011;59829;50.562;6.258;2022-10-17T20:19:08;0.00;;;0.00;;
71955;SDS011;59829;50.562;6.258;2022-10-17T20:29:12;0.08;;;0.00;;
71955;SDS011;59829;50.562;6.258;2022-10-17T20:39:15;0.00;;;0.00;;
71955;SDS011;59829;50.562;6.258;2022-10-17T20:49:17;0.00;;;0.00;;
71955;SDS011;59829;50.562;6.258;2022-10-17T20:59:19;0.00;;;0.00;;
71955;SDS011;59829;50.562;6.258;2022-10-17T21:09:20;0.08;;;0.00;;
71955;SDS011;59829;50.562;6.258;2022-10-17T21:19:21;0.08;;;0.00;;
71955;SDS011;59829;50.562;6.258;2022-10-17T21:29:22;0.35;;;0.20;;
71955;SDS011;59829;50.562;6.258;2022-10-17T21:39:22;0.10;;;0.10;;
71955;SDS011;59829;50.562;6.258;2022-10-17T21:49:24;0.00;;;0.00;;
71955;SDS011;59829;50.562;6.258;2022-10-17T21:59:24;0.00;;;0.00;;
71955;SDS011;59829;50.562;6.258;2022-10-17T22:09:25;0.00;;;0.00;;
71955;SDS011;59829;50.562;6.258;2022-10-17T22:19:25;0.00;;;0.00;;
71955;SDS011;59829;50.562;6.258;2022-10-17T22:29:26;0.00;;;0.00;;
71955;SDS011;59829;50.562;6.258;2022-10-17T22:39:26;0.05;;;0.00;;
71955;SDS011;59829;50.562;6.258;2022-10-17T22:49:27;0.00;;;0.00;;
71955;SDS011;59829;50.562;6.258;2022-10-17T22:59:27;0.00;;;0.00;;
71955;SDS011;59829;50.562;6.258;2022-10-17T23:09:27;0.00;;;0.00;;
71955;SDS011;59829;50.562;6.258;2022-10-17T23:19:27;0.10;;;0.00;;
71955;SDS011;59829;50.562;6.258;2022-10-17T23:29:31;0.00;;;0.00;;
71955;SDS011;59829;50.562;6.258;2022-10-17T23:39:32;0.00;;;0.00;;
71955;SDS011;59829;50.562;6.258;2022-10-17T23:49:32;0.05;;;0.00;;
71955;SDS011;59829;50.562;6.258;2022-10-17T23:59:33;0.00;;;0.00;;
